Berea, Texas
Current Conditions -  °F | °C
As of 11:15 PM on Friday 28 Nov 2014 (Local Time) from KASL Reporting Station
Clear Clear  
Wind Chill: 58°   Ceiling: Unl
Heat Index: 58°   Visibility: 10mi
Dew Point: 55°   Wind: 8mph
Humidity: 87%   Direction: 190°S
Pressure: 30.08"   Gusts: NA
Location:  32.7902°N, 94.3019°W
Report Text: KASL 290515Z AUTO 19007KT 10SM CLR 15/13 A3008 RMK AO1 T01460125
Loading
Personal Weather Stations






























Interactive Weather Map New forecast layout! Learn more

10-Day Weather Forecast

Advertisements
Track Severe Weather on mobile